Dara'A, Syria
Current Conditions -  °F | °C
As of 8:00 AM on Saturday 20 Dec 2014 (Local Time) from OJAM Reporting Station
Haze Haze  
Wind Chill: 46°   Ceiling: Unl
Heat Index: 48°   Visibility: 1.8mi
Dew Point: 46°   Wind: 5mph
Humidity: 93%   Direction: 260°W
Pressure: 30.12"   Gusts: NA
Location:  32.6°N, 36.1°E
Report Text: OJAM 200500Z 26004KT 3000 BR NSC 09/08 Q1020 NOSIG
Loading
Personal Weather Stations






























Interactive Weather Map New forecast layout! Learn more

10-Day Weather Forecast

Advertisements
Track Severe Weather on mobile